• Join FlightAware (Why Join?)
  • Login
  • US Flag 
09:10AM EDT


 

Airport Tracker/Info


-or-


 

Live Flight TrackerFlight Track Log ✈ VH-EZR ✈ 26-Apr-2013 ✈ YMEN / MEB - YSBK / BWU

Flight Track Log - Related Links

Times and Time Zones

All times are in EDT time to prevent confusion due to time zone crossing. See the VH-EZR flight status page for this flight to view local times or setup timezone preferences in your user account.

Time Position Orientation Groundspeed Altitude Reporting Facility
EDT Latitude Longitude Course Direction KTS MPH feet Rate Location/Type
01:06AM -37.7322 144.8935 164° South 85 98 1,100  Level Aus ATC (RADAR)
01:07AM -37.7500 144.8999 164° South 133 153 1,600 1,020 Climbing Aus ATC (RADAR)
01:08AM -37.7473 144.9511 86° East 154 177 2,900 1,260 Climbing Aus ATC (RADAR)
01:08AM -37.7391 144.9590 37° Northeast 151 174 3,400 1,560 Climbing Aus ATC (RADAR)
01:09AM -37.7212 144.9784 41° Northeast 148 170 4,200 1,200 Climbing Aus ATC (RADAR)
01:10AM -37.6923 145.0048 36° Northeast 140 161 5,200 960 Climbing Aus ATC (RADAR)
01:10AM -37.6731 145.0203 33° Northeast 141 162 5,700 1,080 Climbing Aus ATC (RADAR)
01:11AM -37.6440 145.0448 34° Northeast 139 160 6,900 1,020 Climbing Aus ATC (RADAR)
01:12AM -37.6242 145.0625 35° Northeast 149 171 7,300 720 Climbing Aus ATC (RADAR)
01:13AM -37.5794 145.1033 36° Northeast 161 185 8,300 780 Climbing Aus ATC (RADAR)
01:13AM -37.5701 145.1108 32° Northeast 160 184 8,500 540 Climbing Aus ATC (RADAR)
01:14AM -37.5431 145.1353 36° Northeast 180 207 8,800 300 Climbing Aus ATC (RADAR)
01:15AM -37.5003 145.1732 35° Northeast 190 219 9,000 120 Climbing Aus ATC (RADAR)
01:15AM -37.4731 145.1971 35° Northeast 204 235 9,000  Level Aus ATC (RADAR)
01:16AM -37.4239 145.2403 35° Northeast 215 247 9,000  Level Aus ATC (RADAR)
01:17AM -37.3957 145.2645 34° Northeast 212 244 9,000  Level Aus ATC (RADAR)
01:18AM -37.3245 145.3275 35° Northeast 209 241 9,000  Level Aus ATC (RADAR)
01:19AM -37.3130 145.3378 35° Northeast 207 238 9,000  Level Aus ATC (RADAR)
01:19AM -37.2860 145.3615 35° Northeast 204 235 9,000  Level Aus ATC (RADAR)
01:20AM -37.2392 145.4027 35° Northeast 206 237 9,000  Level Aus ATC (RADAR)
01:21AM -37.2120 145.4262 34° Northeast 203 234 9,000  Level Aus ATC (RADAR)
01:22AM -37.1702 145.4625 35° Northeast 199 229 9,000  Level Aus ATC (RADAR)
01:23AM -37.1286 145.4988 35° Northeast 200 230 9,000  Level Aus ATC (RADAR)
01:24AM -37.0760 145.5450 35° Northeast 198 228 9,000  Level Aus ATC (RADAR)
01:25AM -37.0346 145.5805 34° Northeast 196 226 9,000  Level Aus ATC (RADAR)
01:25AM -37.0234 145.5905 36° Northeast 197 227 9,000  Level Aus ATC (RADAR)
01:26AM -36.9929 145.6161 34° Northeast 198 228 9,000  Level Aus ATC (RADAR)
01:27AM -36.9510 145.6523 35° Northeast 200 230 9,000  Level Aus ATC (RADAR)
01:28AM -36.8937 145.7024 35° Northeast 202 232 9,000  Level Aus ATC (RADAR)
01:28AM -36.8627 145.7290 34° Northeast 203 234 9,000  Level Aus ATC (RADAR)
01:29AM -36.8509 145.7387 33° Northeast 203 234 9,000  Level Aus ATC (RADAR)
01:29AM -36.8308 145.7730 54° Northeast 210 242 9,000  Level Aus ATC (RADAR)
01:30AM -36.7973 145.8255 51° Northeast 211 243 9,000  Level Aus ATC (RADAR)
01:31AM -36.7736 145.8637 52° Northeast 209 241 9,000  Level Aus ATC (RADAR)
01:32AM -36.7406 145.9167 52° Northeast 210 242 9,000  Level Aus ATC (RADAR)
01:33AM -36.6913 145.9939 51° Northeast 214 246 9,000  Level Aus ATC (RADAR)
01:33AM -36.6818 146.0084 51° Northeast 214 246 9,000 120 Level Aus ATC (RADAR)
01:34AM -36.6609 146.0424 53° Northeast 212 244 9,100 60 Climbing Aus ATC (RADAR)
01:35AM -36.6258 146.1010 53° Northeast 210 242 9,100  Level Aus ATC (RADAR)
01:36AM -36.6042 146.1334 50° Northeast 207 238 9,100  Level Aus ATC (RADAR)
01:37AM -36.5670 146.1890 50° Northeast 207 238 9,100  Level Aus ATC (RADAR)
01:37AM -36.5463 146.2218 52° Northeast 207 238 9,100  Level Aus ATC (RADAR)
01:38AM -36.5050 146.2880 52° Northeast 208 239 9,100  Level Aus ATC (RADAR)
01:39AM -36.4956 146.3016 49° Northeast 207 238 9,100  Level Aus ATC (RADAR)
01:39AM -36.4739 146.3335 50° Northeast 207 238 9,100  Level Aus ATC (RADAR)
01:40AM -36.4388 146.3901 52° Northeast 206 237 9,100  Level Aus ATC (RADAR)
01:41AM -36.4181 146.4230 52° Northeast 206 237 9,100  Level Aus ATC (RADAR)
01:42AM -36.3817 146.4783 51° Northeast 205 236 9,100  Level Aus ATC (RADAR)
01:42AM -36.3610 146.5107 51° Northeast 205 236 9,100  Level Aus ATC (RADAR)
01:43AM -36.3192 146.5763 52° Northeast 207 238 9,100  Level Aus ATC (RADAR)
01:44AM -36.3108 146.5909 55° Northeast 207 238 9,100  Level Aus ATC (RADAR)
01:44AM -36.2893 146.6235 51° Northeast 208 239 9,100  Level Aus ATC (RADAR)
01:45AM -36.2529 146.6801 51° Northeast 209 241 9,100  Level Aus ATC (RADAR)
01:46AM -36.2297 146.7175 52° Northeast 206 237 9,100  Level Aus ATC (RADAR)
01:47AM -36.1950 146.7667 49° Northeast 206 237 9,100  Level Aus ATC (RADAR)
01:47AM -36.1748 146.7997 53° Northeast 205 236 9,100  Level Aus ATC (RADAR)
01:49AM -36.1206 146.8824 51° Northeast 205 236 9,100  Level Aus ATC (RADAR)
01:49AM -36.1116 146.8962 51° Northeast 206 237 9,100  Level Aus ATC (RADAR)
01:50AM -36.0893 146.9281 49° Northeast 208 239 9,100 -120 Level Aus ATC (RADAR)
01:51AM -36.0518 146.9813 49° Northeast 203 234 9,000 -120 Descending Aus ATC (RADAR)
01:51AM -36.0261 147.0073 39° Northeast 203 234 9,000  Level Aus ATC (RADAR)
01:52AM -35.9892 147.0518 44° Northeast 202 232 9,000  Level Aus ATC (RADAR)
01:53AM -35.9525 147.0963 44° Northeast 202 232 9,000  Level Aus ATC (RADAR)
01:54AM -35.9208 147.1321 42° Northeast 202 232 9,000  Level Aus ATC (RADAR)
01:55AM -35.8971 147.1616 45° Northeast 205 236 9,000  Level Aus ATC (RADAR)
01:56AM -35.8552 147.2094 43° Northeast 205 236 9,000  Level Aus ATC (RADAR)
01:56AM -35.8312 147.2372 43° Northeast 203 234 9,000  Level Aus ATC (RADAR)
01:57AM -35.7866 147.2888 43° Northeast 203 234 9,000  Level Aus ATC (RADAR)
01:58AM -35.7468 147.3304 40° Northeast 204 235 9,000  Level Aus ATC (RADAR)
01:59AM -35.7179 147.3610 41° Northeast 205 236 9,000  Level Aus ATC (RADAR)
01:59AM -35.7075 147.3727 42° Northeast 203 234 9,000  Level Aus ATC (RADAR)
02:00AM -35.6837 147.4020 45° Northeast 206 237 9,000  Level Aus ATC (RADAR)
02:01AM -35.6444 147.4455 42° Northeast 209 241 9,000  Level Aus ATC (RADAR)
02:01AM -35.6209 147.4745 45° Northeast 206 237 9,000  Level Aus ATC (RADAR)
02:02AM -35.5930 147.5363 61° Northeast 206 237 9,000  Level Aus ATC (RADAR)
02:03AM -35.5770 147.5658 56° Northeast 206 237 9,000  Level Aus ATC (RADAR)
02:05AM -35.5194 147.6818 59° Northeast 207 238 9,000  Level Aus ATC (RADAR)
02:05AM -35.5119 147.6975 60° Northeast 210 242 9,000  Level Aus ATC (RADAR)
02:06AM -35.4810 147.7585 58° Northeast 209 241 9,000  Level Aus ATC (RADAR)
02:06AM -35.4723 147.7723 52° Northeast 206 237 9,000  Level Aus ATC (RADAR)
02:07AM -35.4551 147.8083 60° Northeast 206 237 9,000  Level Aus ATC (RADAR)
02:07AM -35.4294 147.8592 58° Northeast 208 239 9,000  Level Aus ATC (RADAR)
02:09AM -35.3914 147.9353 58° Northeast 207 238 9,000  Level Aus ATC (RADAR)
02:09AM -35.3839 147.9506 59° Northeast 208 239 9,000  Level Aus ATC (RADAR)
02:10AM -35.3663 147.9864 59° Northeast 208 239 9,000  Level Aus ATC (RADAR)
02:11AM -35.3333 148.0524 58° Northeast 209 241 9,000  Level Aus ATC (RADAR)
02:11AM -35.3152 148.0874 58° Northeast 209 241 9,000  Level Aus ATC (RADAR)
02:12AM -35.2852 148.1477 59° Northeast 206 237 9,000  Level Aus ATC (RADAR)
02:13AM -35.2678 148.1822 58° Northeast 203 234 9,000  Level Aus ATC (RADAR)
02:14AM -35.2346 148.2470 58° Northeast 207 238 9,000  Level Aus ATC (RADAR)
02:14AM -35.2272 148.2618 58° Northeast 205 236 9,000  Level Aus ATC (RADAR)
02:15AM -35.2096 148.2970 59° Northeast 205 236 9,000  Level Aus ATC (RADAR)
02:16AM -35.1818 148.3519 58° Northeast 205 236 9,000  Level Aus ATC (RADAR)
02:16AM -35.1618 148.3916 58° Northeast 205 236 9,000  Level Aus ATC (RADAR)
02:17AM -35.1340 148.4462 58° Northeast 206 237 9,000  Level Aus ATC (RADAR)
02:18AM -35.1162 148.4808 58° Northeast 205 236 9,000  Level Aus ATC (RADAR)
02:19AM -35.0680 148.5757 58° Northeast 205 236 9,000  Level Aus ATC (RADAR)
02:20AM -35.0605 148.5907 59° Northeast 204 235 9,000  Level Aus ATC (RADAR)
02:20AM -35.0427 148.6248 58° Northeast 202 232 9,000  Level Aus ATC (RADAR)
02:21AM -35.0119 148.6846 58° Northeast 205 236 9,000  Level Aus ATC (RADAR)
02:22AM -34.9942 148.7198 58° Northeast 207 238 9,000  Level Aus ATC (RADAR)
02:23AM -34.9632 148.7794 58° Northeast 207 238 9,000  Level Aus ATC (RADAR)
02:24AM -34.9231 148.8589 58° Northeast 200 230 9,000  Level Aus ATC (RADAR)
02:24AM -34.9156 148.8732 57° Northeast 199 229 9,000  Level Aus ATC (RADAR)
02:25AM -34.8979 148.9071 58° Northeast 199 229 9,000 60 Level Aus ATC (RADAR)
02:26AM -34.8680 148.9643 58° Northeast 197 227 9,100  Climbing Aus ATC (RADAR)
02:26AM -34.8505 148.9982 58° Northeast 198 228 9,000 -120 Descending Aus ATC (RADAR)
02:27AM -34.8231 149.0518 58° Northeast 199 229 9,000  Level Aus ATC (RADAR)
02:28AM -34.8032 149.0839 53° Northeast 201 231 9,000  Level Aus ATC (RADAR)
02:29AM -34.7639 149.1485 53° Northeast 201 231 9,000  Level Aus ATC (RADAR)
02:29AM -34.7558 149.1621 54° Northeast 198 228 9,000  Level Aus ATC (RADAR)
02:30AM -34.7359 149.1951 54° Northeast 204 235 9,000  Level Aus ATC (RADAR)
02:31AM -34.7027 149.2505 54° Northeast 201 231 9,000  Level Aus ATC (RADAR)
02:32AM -34.6827 149.2827 53° Northeast 202 232 9,000  Level Aus ATC (RADAR)
02:32AM -34.6549 149.3291 54° Northeast 202 232 9,000  Level Aus ATC (RADAR)
02:33AM -34.6323 149.3662 54° Northeast 202 232 9,000  Level Aus ATC (RADAR)
02:34AM -34.5960 149.4270 54° Northeast 203 234 9,000  Level Aus ATC (RADAR)
02:34AM -34.5844 149.4449 52° Northeast 201 231 9,000 60 Level Aus ATC (RADAR)
02:35AM -34.5647 149.4769 53° Northeast 199 229 9,100  Climbing Aus ATC (RADAR)
02:36AM -34.5365 149.5233 54° Northeast 201 231 9,000 -120 Descending Aus ATC (RADAR)
02:36AM -34.5166 149.5562 54° Northeast 205 236 9,000  Level Aus ATC (RADAR)
02:37AM -34.4830 149.6119 54° Northeast 204 235 9,000  Level Aus ATC (RADAR)
02:38AM -34.4633 149.6436 53° Northeast 199 229 9,000  Level Aus ATC (RADAR)
02:40AM -34.4097 149.7307 53° Northeast 201 231 9,000  Level Aus ATC (RADAR)
02:40AM -34.4012 149.7445 53° Northeast 201 231 9,000  Level Aus ATC (RADAR)
02:41AM -34.3676 149.7998 54° Northeast 202 232 9,000  Level Aus ATC (RADAR)
02:41AM -34.3590 149.8136 53° Northeast 202 232 9,000  Level Aus ATC (RADAR)
02:42AM -34.3394 149.8457 54° Northeast 201 231 9,000  Level Aus ATC (RADAR)
02:43AM -34.3113 149.8913 53° Northeast 201 231 9,000  Level Aus ATC (RADAR)
02:43AM -34.2917 149.9229 53° Northeast 199 229 9,000  Level Aus ATC (RADAR)
02:44AM -34.2472 149.9955 53° Northeast 199 229 9,000  Level Aus ATC (RADAR)
02:45AM -34.2388 150.0090 53° Northeast 198 228 9,000  Level Aus ATC (RADAR)
02:45AM -34.2192 150.0410 53° Northeast 200 230 9,000  Level Aus ATC (RADAR)
02:46AM -34.1823 150.1006 53° Northeast 202 232 9,000  Level Aus ATC (RADAR)
02:47AM -34.1591 150.1292 45° Northeast 202 232 9,000  Level Aus ATC (RADAR)
02:48AM -34.1229 150.1745 46° Northeast 202 232 9,000 -420 Level Aus ATC (RADAR)
02:49AM -34.0703 150.2387 45° Northeast 215 247 8,200 -600 Descending Aus ATC (RADAR)
02:50AM -34.0456 150.2689 45° Northeast 213 245 7,900 -600 Descending Aus ATC (RADAR)
02:50AM -34.0351 150.2819 46° Northeast 213 245 7,700 -600 Descending Aus ATC (RADAR)
02:51AM -34.0104 150.3125 46° Northeast 214 246 7,400 -720 Descending Aus ATC (RADAR)
02:51AM -33.9703 150.3615 45° Northeast 219 252 6,700 -780 Descending Aus ATC (RADAR)
02:52AM -33.9416 150.3965 45° Northeast 215 247 6,200 -780 Descending Aus ATC (RADAR)
02:53AM -33.9238 150.4501 68° East 217 250 5,600 -720 Descending Aus ATC (RADAR)
02:54AM -33.9258 150.5140 92° East 204 235 5,000 -780 Descending Aus ATC (RADAR)
02:54AM -33.9267 150.5538 92° East 199 229 4,500 -840 Descending Aus ATC (RADAR)
02:55AM -33.9270 150.5706 91° East 196 226 4,300 -780 Descending Aus ATC (RADAR)
02:55AM -33.9281 150.6095 92° East 192 221 3,900 -720 Descending Aus ATC (RADAR)
02:56AM -33.9292 150.6631 92° East 185 213 3,300 -780 Descending Aus ATC (RADAR)
02:57AM -33.9308 150.7044 93° East 179 206 2,800 -720 Descending Aus ATC (RADAR)
02:58AM -33.9361 150.7582 97° East 173 199 2,200 -540 Descending Aus ATC (RADAR)
02:58AM -33.9384 150.7739 100° East 180 207 2,200 -240 Level Aus ATC (RADAR)
02:59AM -33.9409 150.8109 95° East 185 213 2,000 -360 Descending Aus ATC (RADAR)
03:00AM -33.9458 150.8759 95° East 170 196 1,600 -300 Descending Aus ATC (RADAR)
03:00AM -33.9438 150.8956 83° East 172 198 1,600 -120 Level Aus ATC (RADAR)
03:01AM -33.9401 150.9319 83° East 182 209 1,500 -240 Descending Aus ATC (RADAR)
03:02AM -33.9521 150.9868 105° East 169 194 1,300 -420 Descending Aus ATC (RADAR)
03:02AM -33.9490 151.0133 82° East 150 173 900 -720 Descending Aus ATC (RADAR)